Terminal Aerodrome Forecast
Issued by NWS

Home | Current Version | Previous Version | Text Only | Print | Product List | Glossary On
Versions: 1 2 3 4 5 6 7 8 9 10 11 12 13 14 15 16 17 18 19 20 21 22 23
000
FTUS43 KJKL 170540
TAFSJS
TAF
KSJS 170540Z 1706/1806 VRB03KT P6SM VCSH OVC060
     FM170900 17004KT 4SM SHRA OVC040
     FM171200 19005KT 5SM -SHRA BR VCTS OVC030CB
     FM171500 20009KT P6SM VCTS OVC025CB
     FM171800 21012G20KT P6SM VCTS BKN015CB
     FM172100 23010KT P6SM -SHRA OVC020=

USA.gov is the U.S. government's official web portal to all federal, state and local government web resources and services.